createdAt,value
2022-09-02T00:01:54.945Z,0.40
2022-09-02T00:04:24.625Z,0.50
2022-09-02T00:06:53.933Z,0.50
2022-09-02T00:09:22.427Z,0.40
2022-09-02T00:11:51.024Z,0.40
2022-09-02T00:14:22.488Z,0.50
2022-09-02T00:16:52.673Z,0.30
2022-09-02T00:19:25.205Z,0.63
2022-09-02T00:21:53.945Z,0.47
2022-09-02T00:24:21.338Z,0.50
2022-09-02T00:26:47.845Z,0.47
2022-09-02T00:29:15.417Z,0.50
2022-09-02T00:31:43.771Z,0.60
2022-09-02T00:34:10.845Z,0.40
2022-09-02T00:36:38.166Z,0.50
2022-09-02T00:39:07.507Z,0.50
2022-09-02T00:41:35.003Z,0.57
2022-09-02T00:44:05.702Z,0.37
2022-09-02T00:46:33.569Z,0.40
2022-09-02T00:49:43.726Z,0.50
2022-09-02T00:52:26.057Z,0.43
2022-09-02T00:55:02.573Z,0.70
2022-09-02T00:57:34.059Z,0.50
2022-09-02T01:00:12.202Z,0.60
2022-09-02T01:02:41.672Z,0.40
2022-09-02T01:05:12.609Z,0.50
2022-09-02T01:07:39.989Z,0.40
2022-09-02T01:10:10.817Z,0.50
2022-09-02T01:12:38.155Z,0.50
2022-09-02T01:15:07.255Z,0.60
2022-09-02T01:17:34.837Z,0.43
2022-09-02T01:20:12.118Z,0.70
2022-09-02T01:22:39.930Z,0.50
2022-09-02T01:25:12.293Z,0.63
2022-09-02T01:27:39.476Z,0.33
2022-09-02T01:30:08.284Z,0.70
2022-09-02T01:32:34.900Z,0.53
2022-09-02T01:35:01.533Z,0.40
2022-09-02T01:37:28.255Z,0.50
2022-09-02T01:39:56.017Z,0.40
2022-09-02T01:42:22.591Z,0.43
2022-09-02T01:44:49.096Z,0.80
2022-09-02T01:47:19.341Z,0.40
2022-09-02T01:49:46.597Z,0.40
2022-09-02T01:52:14.638Z,0.50
2022-09-02T01:54:41.577Z,0.50
2022-09-02T01:57:08.897Z,0.30
2022-09-02T01:59:35.319Z,0.80
2022-09-02T02:02:02.529Z,0.30
2022-09-02T02:04:29.064Z,0.33
2022-09-02T02:06:56.810Z,0.53
2022-09-02T02:09:23.926Z,0.50
2022-09-02T02:11:51.218Z,0.50
2022-09-02T02:14:18.017Z,0.97
2022-09-02T02:16:44.661Z,0.47
2022-09-02T02:19:11.183Z,0.50
2022-09-02T02:21:37.666Z,0.70
2022-09-02T02:24:04.248Z,0.43
2022-09-02T02:26:31.381Z,0.47
2022-09-02T02:28:59.909Z,0.40
2022-09-02T02:31:26.654Z,0.60
2022-09-02T02:33:53.323Z,0.43
2022-09-02T02:36:20.143Z,0.60
2022-09-02T02:38:46.791Z,0.50
2022-09-02T02:41:14.984Z,0.50
2022-09-02T02:43:42.485Z,0.50
2022-09-02T02:46:09.195Z,0.47
2022-09-02T02:48:36.770Z,0.50
2022-09-02T02:51:04.099Z,0.70
2022-09-02T02:53:31.338Z,0.70
2022-09-02T02:55:59.519Z,0.50
2022-09-02T02:58:26.493Z,0.57
2022-09-02T03:00:52.951Z,0.60
2022-09-02T03:03:19.979Z,0.60
2022-09-02T03:05:47.556Z,0.40
2022-09-02T03:08:14.017Z,0.57
2022-09-02T03:10:42.085Z,0.50
2022-09-02T03:13:11.105Z,0.60
2022-09-02T03:15:39.111Z,0.67
2022-09-02T03:18:06.178Z,0.50
2022-09-02T03:20:32.648Z,0.50
2022-09-02T03:23:00.491Z,0.60
2022-09-02T03:25:35.430Z,0.57
2022-09-02T03:28:04.423Z,0.60
2022-09-02T03:30:31.689Z,0.50
2022-09-02T03:33:04.242Z,0.80
2022-09-02T03:35:32.269Z,0.47
2022-09-02T03:38:00.515Z,0.70
2022-09-02T03:40:28.350Z,0.70
2022-09-02T03:42:59.897Z,0.83
2022-09-02T03:45:27.429Z,0.70
2022-09-02T03:47:56.824Z,0.70
2022-09-02T03:50:30.101Z,1.23
2022-09-02T03:52:57.764Z,0.70
2022-09-02T03:55:24.625Z,0.57
2022-09-02T03:57:52.400Z,0.67
2022-09-02T04:00:21.241Z,1.03
2022-09-02T04:02:50.132Z,0.60
2022-09-02T04:05:17.734Z,0.50
2022-09-02T04:07:47.133Z,0.70
2022-09-02T04:10:14.947Z,0.50
2022-09-02T04:12:41.814Z,0.60
2022-09-02T04:15:10.142Z,0.60
2022-09-02T04:17:38.167Z,0.80
2022-09-02T04:20:07.191Z,0.60
2022-09-02T04:22:34.221Z,0.47
2022-09-02T04:25:00.732Z,0.80
2022-09-02T04:27:27.425Z,0.60
2022-09-02T04:29:53.977Z,0.80
2022-09-02T04:32:21.769Z,0.50
2022-09-02T04:34:49.875Z,0.93
2022-09-02T04:37:16.906Z,0.60
2022-09-02T04:39:43.413Z,0.50
2022-09-02T04:42:10.043Z,0.50
2022-09-02T04:44:36.502Z,0.70
2022-09-02T04:47:03.114Z,0.70
2022-09-02T04:49:32.353Z,0.87
2022-09-02T04:52:00.153Z,0.80
2022-09-02T04:54:27.240Z,0.50
2022-09-02T04:56:53.974Z,0.60
2022-09-02T04:59:21.332Z,0.70
2022-09-02T05:01:48.204Z,0.70
2022-09-02T05:04:14.808Z,0.80
2022-09-02T05:06:44.401Z,0.70
2022-09-02T05:09:11.279Z,0.53
2022-09-02T05:11:38.751Z,0.73
2022-09-02T05:14:06.845Z,0.83
2022-09-02T05:16:37.194Z,0.70
2022-09-02T05:19:05.812Z,0.70
2022-09-02T05:21:32.328Z,0.77
2022-09-02T05:24:00.939Z,0.60
2022-09-02T05:26:27.555Z,0.70
2022-09-02T05:28:54.076Z,0.40
2022-09-02T05:31:21.746Z,0.60
2022-09-02T05:33:48.786Z,0.60
2022-09-02T05:36:18.281Z,0.60
2022-09-02T05:38:46.060Z,0.77
2022-09-02T05:41:23.628Z,0.63
2022-09-02T05:43:53.168Z,0.73
2022-09-02T05:46:23.275Z,0.70
2022-09-02T05:49:06.425Z,0.63
2022-09-02T05:51:57.812Z,0.90
2022-09-02T05:54:28.666Z,0.73
2022-09-02T05:56:57.835Z,0.60
2022-09-02T05:59:26.947Z,0.70
2022-09-02T06:01:54.531Z,0.70
2022-09-02T06:04:22.495Z,0.70
2022-09-02T06:06:50.414Z,0.73
2022-09-02T06:09:19.576Z,0.60
2022-09-02T06:11:49.383Z,0.80
2022-09-02T06:14:25.389Z,0.77
2022-09-02T06:16:53.747Z,0.53
2022-09-02T06:19:21.378Z,0.60
2022-09-02T06:21:49.219Z,0.87
2022-09-02T06:24:16.122Z,0.90
2022-09-02T06:26:43.245Z,0.80
2022-09-02T06:29:10.759Z,0.77
2022-09-02T06:31:40.322Z,0.80
2022-09-02T06:34:06.972Z,0.80
2022-09-02T06:36:33.481Z,0.87
2022-09-02T06:39:00.918Z,0.97
2022-09-02T06:41:31.422Z,0.87
2022-09-02T06:44:00.658Z,0.83
2022-09-02T06:46:33.489Z,0.80
2022-09-02T06:49:00.282Z,0.87
2022-09-02T06:51:36.324Z,1.00
2022-09-02T06:54:04.035Z,0.80
2022-09-02T06:56:30.777Z,0.87
2022-09-02T06:58:58.288Z,1.10
2022-09-02T07:01:28.788Z,1.00
2022-09-02T07:04:14.235Z,1.00
2022-09-02T07:06:43.571Z,1.00
2022-09-02T07:09:11.647Z,1.10
2022-09-02T07:11:38.762Z,0.90
2022-09-02T07:14:06.590Z,0.93
2022-09-02T07:16:43.408Z,1.00
2022-09-02T07:19:15.090Z,1.00
2022-09-02T07:21:44.251Z,1.10
2022-09-02T07:24:12.876Z,1.20
2022-09-02T07:26:40.458Z,0.90
2022-09-02T07:29:08.791Z,0.97
2022-09-02T07:31:42.045Z,1.30
2022-09-02T07:34:09.948Z,1.00
2022-09-02T07:36:38.225Z,0.70
2022-09-02T07:39:07.740Z,0.90
2022-09-02T07:41:35.211Z,1.27
2022-09-02T07:44:02.651Z,0.93
2022-09-02T07:46:32.278Z,1.13
2022-09-02T07:49:04.985Z,4.73
2022-09-02T07:51:37.678Z,22.47
2022-09-02T07:54:05.903Z,16.17
2022-09-02T07:56:32.642Z,1.13
2022-09-02T07:58:59.081Z,1.20
2022-09-02T08:01:25.844Z,1.10
2022-09-02T08:03:52.542Z,1.40
2022-09-02T08:06:27.747Z,1.40
2022-09-02T08:09:04.218Z,1.40
2022-09-02T08:11:32.473Z,0.97
2022-09-02T08:13:59.445Z,1.40
2022-09-02T08:16:25.970Z,1.40
2022-09-02T08:18:52.600Z,1.30
2022-09-02T08:21:18.991Z,1.77
2022-09-02T08:23:47.825Z,1.27
2022-09-02T08:26:14.207Z,1.30
2022-09-02T08:28:40.631Z,1.33
2022-09-02T08:31:07.579Z,1.10
2022-09-02T08:33:34.678Z,1.50
2022-09-02T08:36:11.124Z,1.33
2022-09-02T08:38:37.990Z,1.33
2022-09-02T08:41:24.223Z,1.20
2022-09-02T08:43:57.155Z,1.43
2022-09-02T08:46:26.526Z,1.33
2022-09-02T08:49:08.353Z,1.00
2022-09-02T08:51:43.641Z,1.37
2022-09-02T08:54:25.870Z,1.30
2022-09-02T08:56:52.650Z,1.50
2022-09-02T08:59:22.527Z,1.50
2022-09-02T09:02:11.688Z,1.40
2022-09-02T09:05:06.309Z,1.50
2022-09-02T09:07:40.510Z,1.73
2022-09-02T09:10:19.356Z,1.50
2022-09-02T09:13:01.475Z,1.33
2022-09-02T09:16:31.963Z,1.40
2022-09-02T09:19:15.199Z,1.30
2022-09-02T09:21:43.776Z,1.57
2022-09-02T09:24:29.048Z,1.57
2022-09-02T09:26:55.479Z,1.97
2022-09-02T09:29:22.273Z,1.60
2022-09-02T09:31:56.149Z,1.77
2022-09-02T09:34:23.331Z,1.73
2022-09-02T09:36:54.492Z,2.20
2022-09-02T09:39:30.315Z,1.73
2022-09-02T09:42:03.314Z,2.07
2022-09-02T09:44:45.022Z,1.60
2022-09-02T09:47:25.584Z,1.30
2022-09-02T09:49:54.663Z,1.87
2022-09-02T09:52:27.519Z,1.93
2022-09-02T09:55:12.811Z,1.90
2022-09-02T09:57:41.170Z,2.10
2022-09-02T10:00:21.048Z,1.73
2022-09-02T10:02:52.911Z,1.90
2022-09-02T10:05:25.141Z,2.00
2022-09-02T10:08:10.109Z,2.30
2022-09-02T10:10:55.993Z,1.90
2022-09-02T10:13:25.789Z,1.90
2022-09-02T10:16:26.857Z,2.00
2022-09-02T10:19:11.983Z,2.03
2022-09-02T10:21:54.070Z,2.07
2022-09-02T10:24:45.239Z,2.20
2022-09-02T10:27:30.867Z,2.20
2022-09-02T10:30:11.874Z,2.17
2022-09-02T10:33:19.394Z,2.23
2022-09-02T10:35:48.878Z,2.00
2022-09-02T10:38:30.671Z,2.20
2022-09-02T10:41:08.783Z,2.60
2022-09-02T10:43:56.740Z,2.47
2022-09-02T10:46:25.127Z,2.00
2022-09-02T10:49:04.642Z,2.80
2022-09-02T10:51:43.261Z,2.53
2022-09-02T10:55:01.482Z,2.20
2022-09-02T10:57:37.571Z,2.33
2022-09-02T11:00:14.670Z,2.40
2022-09-02T11:03:03.243Z,2.47
2022-09-02T11:05:37.979Z,2.60
2022-09-02T11:08:11.955Z,2.80
2022-09-02T11:11:06.217Z,2.40
2022-09-02T11:13:43.858Z,2.40
2022-09-02T11:16:39.744Z,2.73
2022-09-02T11:19:16.198Z,2.77
2022-09-02T11:22:08.058Z,2.37
2022-09-02T11:24:47.897Z,2.67
2022-09-02T11:27:42.075Z,2.30
2022-09-02T11:30:39.360Z,2.13
2022-09-02T11:33:37.422Z,2.50
2022-09-02T11:36:04.300Z,2.73
2022-09-02T11:38:44.014Z,2.50
2022-09-02T11:41:37.195Z,3.17
2022-09-02T11:44:21.113Z,2.50
2022-09-02T11:47:06.325Z,2.80
2022-09-02T11:50:00.967Z,2.87
2022-09-02T11:52:34.258Z,3.00
2022-09-02T11:55:16.353Z,2.53
2022-09-02T11:57:44.058Z,2.43
2022-09-02T12:00:27.422Z,2.27
2022-09-02T12:03:35.853Z,2.57
2022-09-02T12:06:14.158Z,2.20
2022-09-02T12:08:41.994Z,2.57
2022-09-02T12:11:09.913Z,2.20
2022-09-02T12:13:43.438Z,2.07
2022-09-02T12:16:12.966Z,2.20
2022-09-02T12:18:42.374Z,2.00
2022-09-02T12:21:16.608Z,2.00
2022-09-02T12:23:50.118Z,2.10
2022-09-02T12:26:18.308Z,2.23
2022-09-02T12:28:47.108Z,1.60
2022-09-02T12:31:38.447Z,1.80
2022-09-02T12:34:25.047Z,2.00
2022-09-02T12:36:58.546Z,1.50
2022-09-02T12:39:24.932Z,1.60
2022-09-02T12:42:06.240Z,1.67
2022-09-02T12:44:43.707Z,1.90
2022-09-02T12:47:30.990Z,1.80
2022-09-02T12:50:10.570Z,1.63
2022-09-02T12:52:42.503Z,1.80
2022-09-02T12:55:18.240Z,1.73
2022-09-02T12:57:47.690Z,1.63
2022-09-02T13:00:19.530Z,1.63
2022-09-02T13:03:14.195Z,1.70
2022-09-02T13:05:40.702Z,1.60
2022-09-02T13:08:29.091Z,1.30
2022-09-02T13:10:59.875Z,1.67
2022-09-02T13:13:44.535Z,1.60
2022-09-02T13:16:18.985Z,1.60
2022-09-02T13:19:07.154Z,1.40
2022-09-02T13:21:59.453Z,1.43
2022-09-02T13:24:51.080Z,1.40
2022-09-02T13:27:39.689Z,1.80
2022-09-02T13:30:43.565Z,1.60
2022-09-02T13:33:12.099Z,1.80
2022-09-02T13:35:41.701Z,1.50
2022-09-02T13:38:13.029Z,1.53
2022-09-02T13:40:40.800Z,1.60
2022-09-02T13:43:12.964Z,1.50
2022-09-02T13:45:40.297Z,1.60
2022-09-02T13:48:23.044Z,1.70
2022-09-02T13:50:53.082Z,1.83
2022-09-02T13:53:53.773Z,1.70
2022-09-02T13:56:28.235Z,1.60
2022-09-02T13:58:58.466Z,1.50
2022-09-02T14:01:31.392Z,1.30
2022-09-02T14:04:00.333Z,1.40
2022-09-02T14:06:33.466Z,1.40
2022-09-02T14:09:02.130Z,1.60
2022-09-02T14:11:33.456Z,1.40
2022-09-02T14:14:00.152Z,1.47
2022-09-02T14:16:34.978Z,1.60
2022-09-02T14:19:10.740Z,1.37
2022-09-02T14:21:43.827Z,1.43
2022-09-02T14:24:13.599Z,1.53
2022-09-02T14:26:45.954Z,1.30
2022-09-02T14:29:17.933Z,1.60
2022-09-02T14:31:45.887Z,1.43
2022-09-02T14:34:43.500Z,1.90
2022-09-02T14:37:23.869Z,1.30
2022-09-02T14:40:12.902Z,1.30
2022-09-02T14:42:56.819Z,2.07
2022-09-02T14:45:35.148Z,1.40
2022-09-02T14:48:19.923Z,1.23
2022-09-02T14:50:46.485Z,1.17
2022-09-02T14:53:21.054Z,1.63
2022-09-02T14:55:55.909Z,1.27
2022-09-02T14:58:27.328Z,1.40
2022-09-02T15:00:57.988Z,1.90
2022-09-02T15:03:25.908Z,1.60
2022-09-02T15:05:53.711Z,1.40
2022-09-02T15:08:21.119Z,1.47
2022-09-02T15:10:48.259Z,1.43
2022-09-02T15:13:20.017Z,1.93
2022-09-02T15:15:46.514Z,1.87
2022-09-02T15:18:14.196Z,1.73
2022-09-02T15:20:40.712Z,1.57
2022-09-02T15:23:07.125Z,1.63
2022-09-02T15:25:34.318Z,1.60
2022-09-02T15:28:01.599Z,1.70
2022-09-02T15:30:28.131Z,1.60
2022-09-02T15:32:54.568Z,1.70
2022-09-02T15:35:21.161Z,1.40
2022-09-02T15:37:50.219Z,1.50
2022-09-02T15:40:16.842Z,1.60
2022-09-02T15:42:43.327Z,1.80
2022-09-02T15:45:10.189Z,1.67
2022-09-02T15:47:38.051Z,1.90
2022-09-02T15:50:05.954Z,1.87
2022-09-02T15:52:34.585Z,2.07
2022-09-02T15:55:02.292Z,1.70
2022-09-02T15:57:29.951Z,1.97
2022-09-02T15:59:56.803Z,2.17
2022-09-02T16:02:23.510Z,1.63
2022-09-02T16:04:50.082Z,1.77
2022-09-02T16:07:17.450Z,1.60
2022-09-02T16:09:44.091Z,1.70
2022-09-02T16:12:11.168Z,1.60
2022-09-02T16:14:37.695Z,1.70
2022-09-02T16:17:04.270Z,1.83
2022-09-02T16:19:30.723Z,1.60
2022-09-02T16:21:57.739Z,1.73
2022-09-02T16:24:24.511Z,1.77
2022-09-02T16:26:51.415Z,2.20
2022-09-02T16:29:18.973Z,1.60
2022-09-02T16:32:01.872Z,2.27
2022-09-02T16:34:33.699Z,1.70
2022-09-02T16:37:00.716Z,2.00
2022-09-02T16:39:27.246Z,1.73
2022-09-02T16:41:54.509Z,2.00
2022-09-02T16:44:23.578Z,1.90
2022-09-02T16:46:51.609Z,1.87
2022-09-02T16:49:20.736Z,1.90
2022-09-02T16:51:49.112Z,1.90
2022-09-02T16:54:17.828Z,1.90
2022-09-02T16:56:48.292Z,2.03
2022-09-02T16:59:15.073Z,1.70
2022-09-02T17:01:41.578Z,1.80
2022-09-02T17:04:08.764Z,2.03
2022-09-02T17:06:41.894Z,1.83
2022-09-02T17:09:09.291Z,2.17
2022-09-02T17:11:39.670Z,2.00
2022-09-02T17:14:11.887Z,1.77
2022-09-02T17:16:44.413Z,1.70
2022-09-02T17:19:11.737Z,1.93
2022-09-02T17:21:43.823Z,1.53
2022-09-02T17:24:13.343Z,1.90
2022-09-02T17:26:42.913Z,1.77
2022-09-02T17:29:46.823Z,1.70
2022-09-02T17:32:05.589Z,1.60
2022-09-02T17:34:34.030Z,1.67
2022-09-02T17:37:00.556Z,1.83
2022-09-02T17:39:27.090Z,1.70
2022-09-02T17:41:59.473Z,1.70
2022-09-02T17:44:34.915Z,1.83
2022-09-02T17:47:06.667Z,1.60
2022-09-02T17:49:35.479Z,1.83
2022-09-02T17:52:03.233Z,1.63
2022-09-02T17:54:29.898Z,1.60
2022-09-02T17:57:14.947Z,1.50
2022-09-02T17:59:47.171Z,1.60
2022-09-02T18:02:35.653Z,1.50
2022-09-02T18:05:29.550Z,2.83
2022-09-02T18:08:29.981Z,1.70
2022-09-02T18:10:58.444Z,1.60
2022-09-02T18:13:32.348Z,1.70
2022-09-02T18:16:23.295Z,1.67
2022-09-02T18:19:13.991Z,1.53
2022-09-02T18:22:11.381Z,1.53
2022-09-02T18:24:56.302Z,1.60
2022-09-02T18:28:07.432Z,1.70
2022-09-02T18:30:52.684Z,1.60
2022-09-02T18:33:34.233Z,1.80
2022-09-02T18:36:15.598Z,1.63
2022-09-02T18:39:14.481Z,1.60
2022-09-02T18:42:26.095Z,1.90
2022-09-02T18:45:16.326Z,1.90
2022-09-02T18:47:50.972Z,1.50
2022-09-02T18:50:52.246Z,1.67
2022-09-02T18:53:23.142Z,2.23
2022-09-02T18:55:51.974Z,1.97
2022-09-02T18:58:39.182Z,1.60
2022-09-02T19:01:16.628Z,1.87
2022-09-02T19:03:43.619Z,2.20
2022-09-02T19:06:17.635Z,1.77
2022-09-02T19:08:46.348Z,1.97
2022-09-02T19:11:17.933Z,1.97
2022-09-02T19:13:49.195Z,2.23
2022-09-02T19:16:18.252Z,2.00
2022-09-02T19:18:45.404Z,1.97
2022-09-02T19:21:17.597Z,2.33
2022-09-02T19:23:45.743Z,1.80
2022-09-02T19:26:13.601Z,2.10
2022-09-02T19:28:41.427Z,1.97
2022-09-02T19:31:12.707Z,2.20
2022-09-02T19:33:44.384Z,1.93
2022-09-02T19:36:10.901Z,2.17
2022-09-02T19:38:38.937Z,1.90
2022-09-02T19:41:05.484Z,2.17
2022-09-02T19:43:31.869Z,1.70
2022-09-02T19:45:59.834Z,1.90
2022-09-02T19:48:26.401Z,2.47
2022-09-02T19:50:52.936Z,2.10
2022-09-02T19:53:23.627Z,1.80
2022-09-02T19:55:51.122Z,1.73
2022-09-02T19:58:17.953Z,1.80
2022-09-02T20:00:44.677Z,1.80
2022-09-02T20:03:11.971Z,2.10
2022-09-02T20:05:40.378Z,1.93
2022-09-02T20:08:09.101Z,1.83
2022-09-02T20:10:37.573Z,1.50
2022-09-02T20:13:04.405Z,2.17
2022-09-02T20:15:31.168Z,1.83
2022-09-02T20:18:10.608Z,1.60
2022-09-02T20:20:37.453Z,1.70
2022-09-02T20:23:04.128Z,1.50
2022-09-02T20:25:58.723Z,2.23
2022-09-02T20:28:29.032Z,1.73
2022-09-02T20:31:15.358Z,1.90
2022-09-02T20:33:55.906Z,2.00
2022-09-02T20:36:34.782Z,1.50
2022-09-02T20:39:22.709Z,1.70
2022-09-02T20:42:15.738Z,1.80
2022-09-02T20:45:07.897Z,1.77
2022-09-02T20:47:46.501Z,1.50
2022-09-02T20:50:18.962Z,1.80
2022-09-02T20:52:51.336Z,1.40
2022-09-02T20:55:38.456Z,1.67
2022-09-02T20:58:36.065Z,1.37
2022-09-02T21:01:08.466Z,1.57
2022-09-02T21:03:43.517Z,1.80
2022-09-02T21:06:10.961Z,1.23
2022-09-02T21:09:03.199Z,1.80
2022-09-02T21:11:38.866Z,1.50
2022-09-02T21:14:13.634Z,1.67
2022-09-02T21:16:48.106Z,1.67
2022-09-02T21:19:43.726Z,1.40
2022-09-02T21:22:24.926Z,1.60
2022-09-02T21:24:54.654Z,1.80
2022-09-02T21:27:27.037Z,1.87
2022-09-02T21:30:08.331Z,1.70
2022-09-02T21:32:51.860Z,1.50
2022-09-02T21:35:27.251Z,1.73
2022-09-02T21:37:59.165Z,1.70
2022-09-02T21:40:40.298Z,1.43
2022-09-02T21:43:45.594Z,1.50
2022-09-02T21:46:21.132Z,1.70
2022-09-02T21:49:01.734Z,1.50
2022-09-02T21:51:41.830Z,1.63
2022-09-02T21:54:36.614Z,1.47
2022-09-02T21:57:30.473Z,1.63
2022-09-02T22:00:01.090Z,1.83
2022-09-02T22:02:40.116Z,1.53
2022-09-02T22:05:25.141Z,2.07
2022-09-02T22:08:11.275Z,1.60
2022-09-02T22:10:43.390Z,1.43
2022-09-02T22:13:10.600Z,1.80
2022-09-02T22:15:55.855Z,1.67
2022-09-02T22:18:35.943Z,1.50
2022-09-02T22:21:17.051Z,1.47
2022-09-02T22:23:44.187Z,1.57
2022-09-02T22:26:28.724Z,1.40
2022-09-02T22:29:03.931Z,1.80
2022-09-02T22:31:35.881Z,1.70
2022-09-02T22:34:05.489Z,1.73
2022-09-02T22:36:56.236Z,1.43
2022-09-02T22:39:50.540Z,1.40
2022-09-02T22:42:25.641Z,1.43
2022-09-02T22:45:34.261Z,1.57
2022-09-02T22:48:29.774Z,1.60
2022-09-02T22:51:19.406Z,2.00
2022-09-02T22:53:47.987Z,1.40
2022-09-02T22:56:21.536Z,1.57
2022-09-02T22:59:19.948Z,1.33
2022-09-02T23:01:58.832Z,1.40
2022-09-02T23:04:55.362Z,1.50
2022-09-02T23:07:23.669Z,1.60
2022-09-02T23:09:54.850Z,1.20
2022-09-02T23:12:41.464Z,1.53
2022-09-02T23:15:18.296Z,1.43
2022-09-02T23:18:03.413Z,1.60
2022-09-02T23:20:45.357Z,1.40
2022-09-02T23:23:38.898Z,1.43
2022-09-02T23:26:38.414Z,1.47
2022-09-02T23:29:18.551Z,1.60
2022-09-02T23:32:04.442Z,1.60
2022-09-02T23:35:12.720Z,1.50
2022-09-02T23:37:57.336Z,1.60
2022-09-02T23:40:37.654Z,1.50
2022-09-02T23:43:04.227Z,1.80
2022-09-02T23:45:33.742Z,1.73
2022-09-02T23:48:43.964Z,1.70
2022-09-02T23:51:19.330Z,1.67
2022-09-02T23:54:03.672Z,1.50
2022-09-02T23:56:46.430Z,1.43
2022-09-02T23:59:47.026Z,1.40
